createdAt,value
2018-11-07T00:01:07.256Z,10.10
2018-11-07T00:03:41.930Z,10.57
2018-11-07T00:06:16.855Z,10.23
2018-11-07T00:08:51.684Z,10.37
2018-11-07T00:11:25.974Z,10.20
2018-11-07T00:14:00.537Z,9.90
2018-11-07T00:16:35.616Z,9.87
2018-11-07T00:19:10.189Z,10.10
2018-11-07T00:21:44.930Z,10.70
2018-11-07T00:24:19.604Z,10.80
2018-11-07T00:26:54.246Z,10.27
2018-11-07T00:29:28.931Z,10.60
2018-11-07T00:32:03.745Z,10.43
2018-11-07T00:34:38.196Z,11.10
2018-11-07T00:37:13.305Z,10.57
2018-11-07T00:39:47.773Z,10.83
2018-11-07T00:42:22.441Z,11.23
2018-11-07T00:44:57.617Z,10.77
2018-11-07T00:47:32.473Z,9.97
2018-11-07T00:50:09.865Z,10.33
2018-11-07T00:52:45.657Z,11.10
2018-11-07T00:55:20.342Z,10.77
2018-11-07T00:57:55.345Z,10.00
2018-11-07T01:00:30.407Z,10.03
2018-11-07T01:03:06.361Z,10.53
2018-11-07T01:05:40.944Z,11.60
2018-11-07T01:08:15.739Z,10.90
2018-11-07T01:10:50.555Z,10.57
2018-11-07T01:13:25.606Z,10.30
2018-11-07T01:16:00.304Z,11.17
2018-11-07T01:18:34.776Z,11.10
2018-11-07T01:21:09.605Z,10.60
2018-11-07T01:23:44.723Z,11.50
2018-11-07T01:26:19.428Z,11.23
2018-11-07T01:28:54.496Z,11.73
2018-11-07T01:31:29.219Z,11.50
2018-11-07T01:34:04.152Z,12.10
2018-11-07T01:36:38.609Z,10.97
2018-11-07T01:39:13.005Z,10.63
2018-11-07T01:41:47.548Z,11.63
2018-11-07T01:44:22.772Z,11.40
2018-11-07T01:46:57.185Z,11.50
2018-11-07T01:49:31.784Z,11.40
2018-11-07T01:52:06.775Z,11.47
2018-11-07T01:54:41.485Z,12.40
2018-11-07T01:57:16.345Z,11.07
2018-11-07T01:59:51.056Z,11.57
2018-11-07T02:02:25.768Z,12.17
2018-11-07T02:05:00.957Z,11.67
2018-11-07T02:07:35.787Z,11.03
2018-11-07T02:10:11.243Z,11.40
2018-11-07T02:12:45.732Z,11.87
2018-11-07T02:15:20.441Z,11.33
2018-11-07T02:17:55.540Z,11.53
2018-11-07T02:20:29.828Z,11.73
2018-11-07T02:23:05.185Z,11.40
2018-11-07T02:25:39.632Z,11.50
2018-11-07T02:28:14.311Z,12.23
2018-11-07T02:30:49.087Z,10.53
2018-11-07T02:33:23.507Z,11.27
2018-11-07T02:35:57.940Z,10.63
2018-11-07T02:38:32.695Z,10.90
2018-11-07T02:41:07.769Z,11.17
2018-11-07T02:43:42.301Z,10.67
2018-11-07T02:46:17.456Z,11.03
2018-11-07T02:48:51.805Z,11.30
2018-11-07T02:51:26.313Z,11.60
2018-11-07T02:54:02.055Z,11.60
2018-11-07T02:56:36.847Z,11.30
2018-11-07T02:59:11.504Z,11.97
2018-11-07T03:01:46.729Z,10.90
2018-11-07T03:04:21.713Z,11.30
2018-11-07T03:06:56.057Z,11.50
2018-11-07T03:09:30.446Z,10.60
2018-11-07T03:12:05.351Z,11.07
2018-11-07T03:14:40.040Z,11.00
2018-11-07T03:17:14.702Z,12.10
2018-11-07T03:19:49.256Z,11.27
2018-11-07T03:22:23.744Z,11.27
2018-11-07T03:24:58.280Z,11.30
2018-11-07T03:27:32.985Z,11.87
2018-11-07T03:30:09.864Z,11.00
2018-11-07T03:32:44.369Z,11.60
2018-11-07T03:35:23.889Z,11.27
2018-11-07T03:37:58.644Z,11.60
2018-11-07T03:40:33.209Z,11.10
2018-11-07T03:43:08.042Z,11.93
2018-11-07T03:45:48.500Z,11.53
2018-11-07T03:48:22.813Z,11.80
2018-11-07T03:50:57.628Z,11.60
2018-11-07T03:53:32.345Z,11.40
2018-11-07T03:56:06.999Z,11.30
2018-11-07T03:58:41.477Z,11.40
2018-11-07T04:01:16.212Z,10.67
2018-11-07T04:03:50.557Z,10.87
2018-11-07T04:06:25.033Z,10.27
2018-11-07T04:08:59.569Z,11.90
2018-11-07T04:11:34.105Z,11.17
2018-11-07T04:14:08.888Z,12.00
2018-11-07T04:16:43.912Z,11.50
2018-11-07T04:19:18.865Z,11.27
2018-11-07T04:21:53.466Z,11.60
2018-11-07T04:24:27.933Z,10.33
2018-11-07T04:27:02.429Z,10.63
2018-11-07T04:29:36.960Z,11.10
2018-11-07T04:32:11.522Z,10.90
2018-11-07T04:34:46.094Z,11.03
2018-11-07T04:37:20.463Z,10.27
2018-11-07T04:39:54.890Z,11.13
2018-11-07T04:42:29.357Z,10.40
2018-11-07T04:45:04.221Z,10.57
2018-11-07T04:47:38.705Z,10.83
2018-11-07T04:50:15.170Z,10.50
2018-11-07T04:52:49.615Z,10.57
2018-11-07T04:55:26.155Z,10.80
2018-11-07T04:58:00.442Z,10.53
2018-11-07T05:00:36.949Z,10.53
2018-11-07T05:03:12.596Z,10.47
2018-11-07T05:05:47.097Z,10.00
2018-11-07T05:08:24.523Z,9.60
2018-11-07T05:11:00.280Z,10.27
2018-11-07T05:13:35.025Z,10.20
2018-11-07T05:16:09.522Z,10.10
2018-11-07T05:18:44.020Z,10.10
2018-11-07T05:21:18.819Z,10.13
2018-11-07T05:23:53.264Z,9.97
2018-11-07T05:26:27.906Z,10.10
2018-11-07T05:29:03.175Z,10.13
2018-11-07T05:31:37.972Z,10.70
2018-11-07T05:34:12.445Z,10.67
2018-11-07T05:36:47.268Z,10.83
2018-11-07T05:39:22.066Z,11.50
2018-11-07T05:41:56.383Z,10.67
2018-11-07T05:44:30.820Z,11.20
2018-11-07T05:47:06.129Z,10.27
2018-11-07T05:49:40.599Z,10.83
2018-11-07T05:52:14.993Z,10.87
2018-11-07T05:54:49.765Z,10.37
2018-11-07T05:57:24.485Z,11.00
2018-11-07T05:59:59.177Z,10.07
2018-11-07T06:02:34.172Z,10.87
2018-11-07T06:05:09.983Z,10.30
2018-11-07T06:07:44.744Z,10.57
2018-11-07T06:10:19.096Z,11.13
2018-11-07T06:12:53.915Z,10.67
2018-11-07T06:15:28.631Z,11.83
2018-11-07T06:18:03.400Z,10.77
2018-11-07T06:20:38.067Z,10.23
2018-11-07T06:23:13.078Z,10.03
2018-11-07T06:25:47.550Z,11.33
2018-11-07T06:28:21.949Z,10.07
2018-11-07T06:30:56.328Z,10.70
2018-11-07T06:33:30.795Z,10.60
2018-11-07T06:36:05.669Z,9.67
2018-11-07T06:38:40.428Z,10.17
2018-11-07T06:41:14.924Z,10.60
2018-11-07T06:43:49.342Z,10.80
2018-11-07T06:46:23.789Z,10.70
2018-11-07T06:48:58.344Z,10.30
2018-11-07T06:51:32.829Z,10.37
2018-11-07T06:54:07.589Z,10.90
2018-11-07T06:56:41.925Z,10.97
2018-11-07T06:59:16.549Z,10.90
2018-11-07T07:01:50.920Z,10.07
2018-11-07T07:04:25.504Z,11.83
2018-11-07T07:07:00.831Z,12.70
2018-11-07T07:09:35.532Z,12.50
2018-11-07T07:12:09.852Z,11.37
2018-11-07T07:14:44.344Z,12.57
2018-11-07T07:17:18.798Z,11.80
2018-11-07T07:19:53.515Z,11.77
2018-11-07T07:22:28.199Z,11.20
2018-11-07T07:25:02.697Z,11.93
2018-11-07T07:27:37.112Z,11.47
2018-11-07T07:30:14.316Z,11.20
2018-11-07T07:32:50.011Z,12.30
2018-11-07T07:35:24.417Z,12.03
2018-11-07T07:37:59.041Z,11.20
2018-11-07T07:40:33.605Z,11.70
2018-11-07T07:43:08.396Z,11.57
2018-11-07T07:45:43.440Z,11.57
2018-11-07T07:48:18.401Z,12.17
2018-11-07T07:50:53.506Z,11.90
2018-11-07T07:53:27.925Z,11.27
2018-11-07T07:56:02.604Z,11.30
2018-11-07T07:58:37.572Z,11.10
2018-11-07T08:01:12.208Z,10.20
2018-11-07T08:03:47.233Z,10.63
2018-11-07T08:06:21.745Z,10.80
2018-11-07T08:08:56.233Z,11.00
2018-11-07T08:11:30.678Z,10.57
2018-11-07T08:14:05.302Z,10.83
2018-11-07T08:16:40.654Z,10.40
2018-11-07T08:19:15.129Z,10.73
2018-11-07T08:21:49.436Z,10.20
2018-11-07T08:24:23.991Z,10.60
2018-11-07T08:26:58.410Z,10.40
2018-11-07T08:29:32.929Z,10.97
2018-11-07T08:32:07.967Z,10.57
2018-11-07T08:34:43.513Z,10.53
2018-11-07T08:37:18.385Z,11.50
2018-11-07T08:39:52.729Z,11.20
2018-11-07T08:42:27.271Z,12.60
2018-11-07T08:45:07.689Z,11.80
2018-11-07T08:47:42.987Z,11.67
2018-11-07T08:50:19.356Z,11.60
2018-11-07T08:52:54.576Z,11.67
2018-11-07T08:55:32.685Z,11.40
2018-11-07T08:58:07.205Z,11.40
2018-11-07T09:00:41.745Z,11.43
2018-11-07T09:03:16.799Z,12.40
2018-11-07T09:05:51.336Z,11.43
2018-11-07T09:08:26.256Z,11.03
2018-11-07T09:11:01.575Z,11.10
2018-11-07T09:13:36.034Z,10.53
2018-11-07T09:16:10.863Z,10.57
2018-11-07T09:18:45.843Z,11.07
2018-11-07T09:21:20.822Z,10.57
2018-11-07T09:23:55.428Z,10.87
2018-11-07T09:26:29.741Z,11.43
2018-11-07T09:29:08.198Z,12.10
2018-11-07T09:31:43.312Z,12.53
2018-11-07T09:34:17.967Z,11.73
2018-11-07T09:36:52.783Z,12.40
2018-11-07T09:39:27.930Z,11.70
2018-11-07T09:42:03.371Z,12.27
2018-11-07T09:44:38.065Z,13.40
2018-11-07T09:47:12.614Z,13.70
2018-11-07T09:49:50.413Z,13.20
2018-11-07T09:52:24.941Z,14.43
2018-11-07T09:54:59.685Z,14.00
2018-11-07T09:57:34.734Z,13.43
2018-11-07T10:00:12.309Z,14.87
2018-11-07T10:02:47.229Z,14.70
2018-11-07T10:05:22.485Z,14.80
2018-11-07T10:07:57.436Z,14.80
2018-11-07T10:10:34.428Z,15.00
2018-11-07T10:13:09.491Z,15.03
2018-11-07T10:15:44.275Z,15.87
2018-11-07T10:18:19.152Z,15.60
2018-11-07T10:20:58.004Z,16.03
2018-11-07T10:23:33.475Z,15.73
2018-11-07T10:26:08.815Z,15.40
2018-11-07T10:28:44.230Z,15.73
2018-11-07T10:31:24.296Z,16.13
2018-11-07T10:33:59.020Z,14.90
2018-11-07T10:36:33.388Z,15.97
2018-11-07T10:39:10.037Z,15.73
2018-11-07T10:41:44.482Z,15.00
2018-11-07T10:44:18.984Z,14.87
2018-11-07T10:46:54.269Z,15.03
2018-11-07T10:49:28.968Z,16.03
2018-11-07T10:52:03.445Z,15.60
2018-11-07T10:54:38.032Z,15.37
2018-11-07T10:57:12.675Z,16.00
2018-11-07T10:59:47.102Z,15.03
2018-11-07T11:02:27.360Z,14.83
2018-11-07T11:05:01.713Z,14.73
2018-11-07T11:07:36.849Z,13.60
2018-11-07T11:10:12.941Z,14.60
2018-11-07T11:12:47.861Z,14.13
2018-11-07T11:15:22.420Z,14.10
2018-11-07T11:17:57.432Z,13.33
2018-11-07T11:20:41.847Z,12.57
2018-11-07T11:23:16.481Z,13.47
2018-11-07T11:25:51.401Z,12.00
2018-11-07T11:28:26.104Z,11.80
2018-11-07T11:31:00.941Z,11.57
2018-11-07T11:33:35.555Z,11.17
2018-11-07T11:36:10.912Z,10.20
2018-11-07T11:38:45.380Z,9.33
2018-11-07T11:41:20.501Z,10.60
2018-11-07T11:43:54.804Z,9.77
2018-11-07T11:46:29.328Z,9.47
2018-11-07T11:49:04.872Z,8.97
2018-11-07T11:51:40.863Z,9.70
2018-11-07T11:54:15.865Z,9.20
2018-11-07T11:56:50.345Z,8.67
2018-11-07T11:59:25.463Z,8.90
2018-11-07T12:02:00.672Z,8.37
2018-11-07T12:04:35.640Z,8.03
2018-11-07T12:07:10.023Z,8.40
2018-11-07T12:09:44.631Z,8.37
2018-11-07T12:12:19.692Z,8.60
2018-11-07T12:14:54.140Z,7.93
2018-11-07T12:17:28.458Z,7.60
2018-11-07T12:20:02.753Z,7.60
2018-11-07T12:22:37.314Z,7.27
2018-11-07T12:25:13.080Z,7.67
2018-11-07T12:27:47.841Z,7.60
2018-11-07T12:30:23.870Z,8.03
2018-11-07T12:32:58.905Z,7.50
2018-11-07T12:35:33.668Z,8.33
2018-11-07T12:38:08.058Z,7.67
2018-11-07T12:40:42.729Z,7.50
2018-11-07T12:43:17.169Z,8.03
2018-11-07T12:45:51.842Z,9.60
2018-11-07T12:48:26.752Z,8.93
2018-11-07T12:51:01.537Z,9.50
2018-11-07T12:53:35.877Z,9.20
2018-11-07T12:56:10.536Z,9.47
2018-11-07T12:58:45.266Z,9.37
2018-11-07T13:01:20.190Z,9.60
2018-11-07T13:03:54.940Z,8.30
2018-11-07T13:06:29.674Z,7.83
2018-11-07T13:09:06.082Z,8.97
2018-11-07T13:11:56.017Z,9.33
2018-11-07T13:14:32.856Z,9.33
2018-11-07T13:17:07.962Z,8.83
2018-11-07T13:19:43.436Z,8.23
2018-11-07T13:22:20.028Z,8.73
2018-11-07T13:24:56.266Z,8.50
2018-11-07T13:27:31.881Z,8.23
2018-11-07T13:30:18.599Z,8.17
2018-11-07T13:32:53.597Z,8.03
2018-11-07T13:35:29.886Z,7.43
2018-11-07T13:38:08.892Z,7.90
2018-11-07T13:40:51.703Z,7.90
2018-11-07T13:43:27.101Z,8.17
2018-11-07T13:46:05.997Z,7.77
2018-11-07T13:48:41.121Z,7.93
2018-11-07T13:51:15.504Z,7.83
2018-11-07T13:53:49.908Z,7.73
2018-11-07T13:56:24.725Z,7.50
2018-11-07T13:58:59.089Z,6.93
2018-11-07T14:01:33.558Z,6.73
2018-11-07T14:04:08.243Z,6.67
2018-11-07T14:06:43.739Z,6.90
2018-11-07T14:09:18.261Z,6.83
2018-11-07T14:11:53.403Z,6.53
2018-11-07T14:14:27.860Z,6.57
2018-11-07T14:17:03.163Z,6.10
2018-11-07T14:19:38.133Z,6.27
2018-11-07T14:22:13.096Z,5.87
2018-11-07T14:24:47.653Z,6.20
2018-11-07T14:27:22.547Z,6.80
2018-11-07T14:29:58.329Z,7.00
2018-11-07T14:32:32.850Z,7.00
2018-11-07T14:35:07.508Z,6.77
2018-11-07T14:37:42.213Z,6.33
2018-11-07T14:40:17.363Z,6.43
2018-11-07T14:42:52.436Z,5.80
2018-11-07T14:45:27.416Z,5.60
2018-11-07T14:48:01.976Z,5.60
2018-11-07T14:50:43.806Z,5.70
2018-11-07T14:53:24.785Z,5.50
2018-11-07T14:55:59.744Z,5.60
2018-11-07T14:58:35.378Z,5.50
2018-11-07T15:01:09.808Z,5.70
2018-11-07T15:03:48.752Z,5.70
2018-11-07T15:06:35.009Z,5.70
2018-11-07T15:09:10.103Z,6.00
2018-11-07T15:11:44.832Z,5.80
2018-11-07T15:14:19.465Z,6.03
2018-11-07T15:17:03.706Z,6.57
2018-11-07T15:19:38.808Z,6.30
2018-11-07T15:22:13.590Z,6.63
2018-11-07T15:24:48.357Z,6.07
2018-11-07T15:27:23.413Z,6.07
2018-11-07T15:30:00.986Z,6.20
2018-11-07T15:32:36.350Z,6.67
2018-11-07T15:35:11.933Z,6.30
2018-11-07T15:37:47.481Z,7.13
2018-11-07T15:40:22.254Z,6.50
2018-11-07T15:42:56.609Z,8.17
2018-11-07T15:45:31.618Z,7.03
2018-11-07T15:48:06.801Z,7.43
2018-11-07T15:50:46.886Z,6.70
2018-11-07T15:53:21.367Z,9.80
2018-11-07T15:55:55.737Z,8.00
2018-11-07T15:58:30.173Z,7.13
2018-11-07T16:01:04.989Z,7.90
2018-11-07T16:03:44.800Z,7.67
2018-11-07T16:06:20.726Z,8.20
2018-11-07T16:08:57.172Z,8.43
2018-11-07T16:11:31.764Z,8.77
2018-11-07T16:14:06.641Z,9.10
2018-11-07T16:16:41.192Z,8.37
2018-11-07T16:19:15.677Z,8.70
2018-11-07T16:21:50.350Z,9.80
2018-11-07T16:24:25.041Z,10.37
2018-11-07T16:26:59.768Z,8.97
2018-11-07T16:29:34.869Z,10.27
2018-11-07T16:32:09.291Z,11.27
2018-11-07T16:34:43.746Z,11.30
2018-11-07T16:37:18.571Z,13.87
2018-11-07T16:39:52.904Z,17.00
2018-11-07T16:42:27.598Z,15.70
2018-11-07T16:45:02.666Z,13.87
2018-11-07T16:47:37.661Z,14.77
2018-11-07T16:50:14.056Z,14.87
2018-11-07T16:52:48.622Z,15.33
2018-11-07T16:55:23.308Z,20.60
2018-11-07T16:57:58.711Z,20.73
2018-11-07T17:00:33.217Z,22.10
2018-11-07T17:03:07.803Z,20.47
2018-11-07T17:05:43.716Z,20.73
2018-11-07T17:08:18.252Z,23.77
2018-11-07T17:10:52.716Z,23.73
2018-11-07T17:13:27.648Z,23.70
2018-11-07T17:16:02.489Z,22.20
2018-11-07T17:18:36.959Z,22.20
2018-11-07T17:21:11.423Z,24.90
2018-11-07T17:23:45.729Z,25.40
2018-11-07T17:26:21.082Z,26.30
2018-11-07T17:28:55.846Z,26.87
2018-11-07T17:31:30.674Z,26.33
2018-11-07T17:34:05.992Z,25.33
2018-11-07T17:36:40.713Z,25.90
2018-11-07T17:39:20.116Z,25.83
2018-11-07T17:42:02.080Z,25.67
2018-11-07T17:44:41.617Z,27.03
2018-11-07T17:47:22.540Z,43.87
2018-11-07T17:49:57.945Z,37.20
2018-11-07T17:52:46.246Z,28.23
2018-11-07T17:55:24.155Z,26.33
2018-11-07T17:57:59.236Z,38.50
2018-11-07T18:00:35.524Z,35.67
2018-11-07T18:03:10.136Z,36.57
2018-11-07T18:05:46.517Z,30.20
2018-11-07T18:08:20.845Z,25.90
2018-11-07T18:10:55.141Z,28.03
2018-11-07T18:13:29.912Z,28.13
2018-11-07T18:16:04.667Z,27.60
2018-11-07T18:18:40.013Z,27.03
2018-11-07T18:21:15.328Z,27.00
2018-11-07T18:23:50.048Z,25.67
2018-11-07T18:26:24.685Z,27.33
2018-11-07T18:28:59.157Z,29.40
2018-11-07T18:31:35.141Z,29.10
2018-11-07T18:34:09.732Z,26.60
2018-11-07T18:36:44.830Z,27.00
2018-11-07T18:39:20.016Z,27.67
2018-11-07T18:41:54.602Z,30.47
2018-11-07T18:44:31.235Z,26.87
2018-11-07T18:47:06.278Z,26.97
2018-11-07T18:49:41.257Z,26.47
2018-11-07T18:52:16.556Z,26.43
2018-11-07T18:54:50.929Z,26.03
2018-11-07T18:57:25.696Z,24.53
2018-11-07T19:00:00.674Z,24.63
2018-11-07T19:02:44.370Z,25.57
2018-11-07T19:05:21.701Z,24.43
2018-11-07T19:07:56.570Z,24.47
2018-11-07T19:10:32.762Z,23.17
2018-11-07T19:13:08.293Z,24.43
2018-11-07T19:15:43.187Z,24.00
2018-11-07T19:18:18.123Z,26.73
2018-11-07T19:20:52.781Z,25.87
2018-11-07T19:23:27.300Z,25.40
2018-11-07T19:26:01.780Z,25.40
2018-11-07T19:28:36.676Z,27.93
2018-11-07T19:31:11.078Z,28.60
2018-11-07T19:33:45.517Z,29.13
2018-11-07T19:36:19.833Z,29.03
2018-11-07T19:38:54.586Z,28.03
2018-11-07T19:41:29.033Z,28.43
2018-11-07T19:44:03.456Z,27.23
2018-11-07T19:46:37.932Z,29.67
2018-11-07T19:49:12.454Z,31.87
2018-11-07T19:51:47.028Z,32.00
2018-11-07T19:54:21.681Z,30.57
2018-11-07T19:59:39.072Z,31.70
2018-11-07T20:02:13.562Z,29.80
2018-11-07T20:04:49.170Z,29.63
2018-11-07T20:07:23.622Z,30.53
2018-11-07T20:09:58.485Z,30.40
2018-11-07T20:12:34.829Z,31.93
2018-11-07T20:15:10.493Z,30.17
2018-11-07T20:17:45.077Z,29.73
2018-11-07T20:20:19.888Z,31.70
2018-11-07T20:22:54.393Z,29.03
2018-11-07T20:25:29.480Z,29.40
2018-11-07T20:28:04.329Z,29.30
2018-11-07T20:30:39.736Z,30.80
2018-11-07T20:33:14.306Z,29.83
2018-11-07T20:35:49.511Z,28.57
2018-11-07T20:38:24.108Z,27.30
2018-11-07T20:41:26.365Z,29.07
2018-11-07T20:44:04.289Z,29.07
2018-11-07T20:46:44.893Z,29.83
2018-11-07T20:49:22.685Z,28.03
2018-11-07T20:51:58.303Z,27.83
2018-11-07T20:54:33.033Z,27.03
2018-11-07T20:57:22.713Z,27.20
2018-11-07T21:00:18.041Z,26.40
2018-11-07T21:02:52.922Z,26.57
2018-11-07T21:05:27.868Z,26.67
2018-11-07T21:08:02.329Z,28.37
2018-11-07T21:10:36.770Z,26.97
2018-11-07T21:13:11.525Z,26.77
2018-11-07T21:15:46.053Z,27.33
2018-11-07T21:18:24.261Z,27.17
2018-11-07T21:20:58.724Z,26.10
2018-11-07T21:23:42.947Z,26.30
2018-11-07T21:28:58.195Z,27.43
2018-11-07T21:31:35.688Z,26.77
2018-11-07T21:34:10.637Z,28.00
2018-11-07T21:36:45.125Z,28.50
2018-11-07T21:39:19.439Z,26.43
2018-11-07T21:41:53.890Z,26.47
2018-11-07T21:44:28.316Z,26.17
2018-11-07T21:47:02.791Z,26.57
2018-11-07T21:49:37.785Z,25.70
2018-11-07T21:52:12.573Z,26.07
2018-11-07T21:54:46.903Z,27.17
2018-11-07T21:57:22.311Z,26.63
2018-11-07T21:59:57.432Z,25.73
2018-11-07T22:02:31.758Z,25.93
2018-11-07T22:05:07.060Z,26.43
2018-11-07T22:07:42.122Z,26.27
2018-11-07T22:10:18.121Z,25.43
2018-11-07T22:12:52.652Z,24.90
2018-11-07T22:15:27.341Z,25.07
2018-11-07T22:18:02.560Z,24.63
2018-11-07T22:20:36.956Z,24.17
2018-11-07T22:23:11.543Z,23.50
2018-11-07T22:25:47.098Z,24.93
2018-11-07T22:28:21.925Z,23.90
2018-11-07T22:30:56.409Z,23.67
2018-11-07T22:33:31.115Z,24.57
2018-11-07T22:36:05.645Z,24.53
2018-11-07T22:38:40.392Z,22.77
2018-11-07T22:41:15.136Z,21.40
2018-11-07T22:43:49.564Z,21.77
2018-11-07T22:46:24.488Z,21.93
2018-11-07T22:48:59.342Z,22.03
2018-11-07T22:51:33.973Z,23.20
2018-11-07T22:54:08.408Z,23.70
2018-11-07T22:56:42.750Z,22.57
2018-11-07T22:59:17.465Z,21.50
2018-11-07T23:01:52.135Z,21.43
2018-11-07T23:04:26.862Z,21.07
2018-11-07T23:07:01.258Z,20.80
2018-11-07T23:09:35.808Z,20.67
2018-11-07T23:12:10.474Z,19.37
2018-11-07T23:14:45.071Z,20.63
2018-11-07T23:17:19.497Z,21.13
2018-11-07T23:19:54.489Z,21.40
2018-11-07T23:22:29.105Z,24.37
2018-11-07T23:25:04.014Z,26.30
2018-11-07T23:27:38.609Z,24.33
2018-11-07T23:30:13.165Z,24.23
2018-11-07T23:32:47.703Z,25.77
2018-11-07T23:35:22.220Z,26.00
2018-11-07T23:37:56.808Z,25.00
2018-11-07T23:40:31.600Z,24.50
2018-11-07T23:43:06.294Z,26.13
2018-11-07T23:45:41.032Z,25.50
2018-11-07T23:48:15.772Z,25.63
2018-11-07T23:50:50.201Z,24.93
2018-11-07T23:53:25.128Z,24.00
2018-11-07T23:56:00.338Z,22.53
2018-11-07T23:58:34.976Z,21.27
